sensor_id;sensor_type;location;lat;lon;timestamp;pressure;altitude;pressure_sealevel;temperature
75431;BMP280;64127;51.488;5.462;2022-12-01T00:01:26;102468.00;;;10.64
75431;BMP280;64127;51.488;5.462;2022-12-01T00:03:58;102452.53;;;10.56
75431;BMP280;64127;51.488;5.462;2022-12-01T00:06:30;102470.22;;;10.72
75431;BMP280;64127;51.488;5.462;2022-12-01T00:09:02;102471.22;;;10.74
75431;BMP280;64127;51.488;5.462;2022-12-01T00:11:53;102465.78;;;10.71
75431;BMP280;64127;51.488;5.462;2022-12-01T00:14:25;102473.72;;;10.72
75431;BMP280;64127;51.488;5.462;2022-12-01T00:16:57;102464.84;;;10.70
75431;BMP280;64127;51.488;5.462;2022-12-01T00:19:38;102465.97;;;10.74
75431;BMP280;64127;51.488;5.462;2022-12-01T00:22:10;102462.34;;;10.72
75431;BMP280;64127;51.488;5.462;2022-12-01T00:24:42;102446.91;;;10.63
75431;BMP280;64127;51.488;5.462;2022-12-01T00:27:14;102465.78;;;10.71
75431;BMP280;64127;51.488;5.462;2022-12-01T00:29:46;102455.28;;;10.71
75431;BMP280;64127;51.488;5.462;2022-12-01T00:32:18;102457.13;;;10.72
75431;BMP280;64127;51.488;5.462;2022-12-01T00:34:50;102427.81;;;10.52
75431;BMP280;64127;51.488;5.462;2022-12-01T00:37:22;102457.59;;;10.66
75431;BMP280;64127;51.488;5.462;2022-12-01T00:39:54;102459.91;;;10.61
75431;BMP280;64127;51.488;5.462;2022-12-01T00:42:26;102457.19;;;10.60
75431;BMP280;64127;51.488;5.462;2022-12-01T00:44:58;102463.34;;;10.60
75431;BMP280;64127;51.488;5.462;2022-12-01T00:47:30;102462.63;;;10.63
75431;BMP280;64127;51.488;5.462;2022-12-01T00:50:03;102457.31;;;10.61
75431;BMP280;64127;51.488;5.462;2022-12-01T00:52:35;102460.13;;;10.64
75431;BMP280;64127;51.488;5.462;2022-12-01T00:55:07;102463.53;;;10.63
75431;BMP280;64127;51.488;5.462;2022-12-01T00:57:39;102466.97;;;10.62
75431;BMP280;64127;51.488;5.462;2022-12-01T01:00:12;102435.47;;;10.49
75431;BMP280;64127;51.488;5.462;2022-12-01T01:02:45;102465.63;;;10.56
75431;BMP280;64127;51.488;5.462;2022-12-01T01:05:17;102468.38;;;10.57
75431;BMP280;64127;51.488;5.462;2022-12-01T01:07:49;102463.34;;;10.60
75431;BMP280;64127;51.488;5.462;2022-12-01T01:10:21;102465.16;;;10.61
75431;BMP280;64127;51.488;5.462;2022-12-01T01:12:53;102471.59;;;10.53
75431;BMP280;64127;51.488;5.462;2022-12-01T01:15:25;102469.75;;;10.52
75431;BMP280;64127;51.488;5.462;2022-12-01T01:17:57;102470.56;;;10.51
75431;BMP280;64127;51.488;5.462;2022-12-01T01:20:29;102461.66;;;10.36
75431;BMP280;64127;51.488;5.462;2022-12-01T01:23:01;102482.78;;;10.51
75431;BMP280;64127;51.488;5.462;2022-12-01T01:25:33;102472.88;;;10.47
75431;BMP280;64127;51.488;5.462;2022-12-01T01:28:05;102481.66;;;10.47
75431;BMP280;64127;51.488;5.462;2022-12-01T01:30:40;102476.22;;;10.44
75431;BMP280;64127;51.488;5.462;2022-12-01T01:33:12;102478.59;;;10.41
75431;BMP280;64127;51.488;5.462;2022-12-01T01:35:44;102489.19;;;10.43
75431;BMP280;64127;51.488;5.462;2022-12-01T01:38:16;102482.13;;;10.42
75431;BMP280;64127;51.488;5.462;2022-12-01T01:40:48;102480.34;;;10.41
75431;BMP280;64127;51.488;5.462;2022-12-01T01:43:59;102496.06;;;10.41
75431;BMP280;64127;51.488;5.462;2022-12-01T01:46:33;102496.47;;;10.47
75431;BMP280;64127;51.488;5.462;2022-12-01T01:49:10;102497.19;;;10.44
75431;BMP280;64127;51.488;5.462;2022-12-01T01:51:52;102494.56;;;10.44
75431;BMP280;64127;51.488;5.462;2022-12-01T01:54:31;102483.75;;;10.40
75431;BMP280;64127;51.488;5.462;2022-12-01T01:57:07;102507.19;;;10.50
75431;BMP280;64127;51.488;5.462;2022-12-01T01:59:46;102496.47;;;10.47
75431;BMP280;64127;51.488;5.462;2022-12-01T02:02:20;102497.84;;;10.42
75431;BMP280;64127;51.488;5.462;2022-12-01T02:04:59;102479.91;;;10.35
75431;BMP280;64127;51.488;5.462;2022-12-01T02:07:32;102492.31;;;10.37
75431;BMP280;64127;51.488;5.462;2022-12-01T02:10:08;102475.16;;;10.29
75431;BMP280;64127;51.488;5.462;2022-12-01T02:18:58;102496.94;;;10.41
75431;BMP280;64127;51.488;5.462;2022-12-01T02:22:21;102497.78;;;10.40
75431;BMP280;64127;51.488;5.462;2022-12-01T02:25:18;102498.44;;;10.38
75431;BMP280;64127;51.488;5.462;2022-12-01T02:31:25;102494.03;;;10.37
75431;BMP280;64127;51.488;5.462;2022-12-01T02:34:16;102496.75;;;10.38
75431;BMP280;64127;51.488;5.462;2022-12-01T02:36:59;102489.69;;;10.37
75431;BMP280;64127;51.488;5.462;2022-12-01T02:45:56;102495.16;;;10.40
75431;BMP280;64127;51.488;5.462;2022-12-01T02:48:34;102493.53;;;10.42
75431;BMP280;64127;51.488;5.462;2022-12-01T02:51:29;102501.31;;;10.41
75431;BMP280;64127;51.488;5.462;2022-12-01T02:54:04;102495.16;;;10.40
75431;BMP280;64127;51.488;5.462;2022-12-01T02:56:36;102506.63;;;10.42
75431;BMP280;64127;51.488;5.462;2022-12-01T02:59:11;102504.22;;;10.45
75431;BMP280;64127;51.488;5.462;2022-12-01T03:02:12;102507.56;;;10.43
75431;BMP280;64127;51.488;5.462;2022-12-01T03:05:17;102497.19;;;10.44
75431;BMP280;64127;51.488;5.462;2022-12-01T03:08:22;102492.00;;;10.33
75431;BMP280;64127;51.488;5.462;2022-12-01T03:10:57;102498.34;;;10.36
75431;BMP280;64127;51.488;5.462;2022-12-01T03:14:28;102496.44;;;10.34
75431;BMP280;64127;51.488;5.462;2022-12-01T03:17:10;102500.19;;;10.37
75431;BMP280;64127;51.488;5.462;2022-12-01T03:19:53;102503.03;;;10.40
75431;BMP280;64127;51.488;5.462;2022-12-01T03:22:36;102497.66;;;10.39
75431;BMP280;64127;51.488;5.462;2022-12-01T03:25:12;102496.75;;;10.38
75431;BMP280;64127;51.488;5.462;2022-12-01T03:27:47;102497.78;;;10.40
75431;BMP280;64127;51.488;5.462;2022-12-01T03:30:51;102454.34;;;10.19
75431;BMP280;64127;51.488;5.462;2022-12-01T03:33:35;102500.41;;;10.40
75431;BMP280;64127;51.488;5.462;2022-12-01T03:36:23;102500.19;;;10.37
75431;BMP280;64127;51.488;5.462;2022-12-01T03:39:02;102491.28;;;10.35
75431;BMP280;64127;51.488;5.462;2022-12-01T03:41:42;102477.44;;;10.25
75431;BMP280;64127;51.488;5.462;2022-12-01T03:44:21;102488.22;;;10.41
75431;BMP280;64127;51.488;5.462;2022-12-01T03:47:11;102488.66;;;10.35
75431;BMP280;64127;51.488;5.462;2022-12-01T03:49:45;102495.34;;;10.43
75431;BMP280;64127;51.488;5.462;2022-12-01T03:55:27;102505.44;;;10.37
75431;BMP280;64127;51.488;5.462;2022-12-01T03:58:17;102489.50;;;10.34
75431;BMP280;64127;51.488;5.462;2022-12-01T04:00:51;102495.94;;;10.39
75431;BMP280;64127;51.488;5.462;2022-12-01T04:03:26;102503.81;;;10.39
75431;BMP280;64127;51.488;5.462;2022-12-01T04:05:59;102508.13;;;10.39
75431;BMP280;64127;51.488;5.462;2022-12-01T04:08:31;102501.31;;;10.41
75431;BMP280;64127;51.488;5.462;2022-12-01T04:11:05;102504.03;;;10.42
75431;BMP280;64127;51.488;5.462;2022-12-01T04:14:03;102509.97;;;10.40
75431;BMP280;64127;51.488;5.462;2022-12-01T04:16:35;102514.19;;;10.38
75431;BMP280;64127;51.488;5.462;2022-12-01T04:19:07;102509.97;;;10.40
75431;BMP280;64127;51.488;5.462;2022-12-01T04:21:39;102509.75;;;10.37
75431;BMP280;64127;51.488;5.462;2022-12-01T04:24:12;102497.34;;;10.34
75431;BMP280;64127;51.488;5.462;2022-12-01T04:26:45;102497.94;;;10.30
75431;BMP280;64127;51.488;5.462;2022-12-01T04:29:17;102508.94;;;10.38
75431;BMP280;64127;51.488;5.462;2022-12-01T04:31:49;102507.22;;;10.38
75431;BMP280;64127;51.488;5.462;2022-12-01T04:34:21;102509.97;;;10.40
75431;BMP280;64127;51.488;5.462;2022-12-01T04:36:53;102502.91;;;10.39
75431;BMP280;64127;51.488;5.462;2022-12-01T04:39:25;102504.59;;;10.38
75431;BMP280;64127;51.488;5.462;2022-12-01T04:41:57;102502.91;;;10.39
75431;BMP280;64127;51.488;5.462;2022-12-01T04:44:30;102503.81;;;10.39
75431;BMP280;64127;51.488;5.462;2022-12-01T04:47:05;102504.72;;;10.40
75431;BMP280;64127;51.488;5.462;2022-12-01T04:49:38;102471.00;;;10.20
75431;BMP280;64127;51.488;5.462;2022-12-01T04:52:09;102507.22;;;10.38
75431;BMP280;64127;51.488;5.462;2022-12-01T04:54:41;102500.84;;;10.35
75431;BMP280;64127;51.488;5.462;2022-12-01T04:57:13;102510.34;;;10.33
75431;BMP280;64127;51.488;5.462;2022-12-01T04:59:45;102503.41;;;10.33
75431;BMP280;64127;51.488;5.462;2022-12-01T05:02:17;102495.13;;;10.27
75431;BMP280;64127;51.488;5.462;2022-12-01T05:04:49;102504.41;;;10.35
75431;BMP280;64127;51.488;5.462;2022-12-01T05:07:21;102501.78;;;10.35
75431;BMP280;64127;51.488;5.462;2022-12-01T05:09:53;102504.50;;;10.37
75431;BMP280;64127;51.488;5.462;2022-12-01T05:12:25;102476.53;;;10.24
75431;BMP280;64127;51.488;5.462;2022-12-01T05:14:57;102499.28;;;10.37
75431;BMP280;64127;51.488;5.462;2022-12-01T05:17:30;102502.91;;;10.39
75431;BMP280;64127;51.488;5.462;2022-12-01T05:20:17;102506.09;;;10.35
75431;BMP280;64127;51.488;5.462;2022-12-01T05:23:07;102504.09;;;10.31
75431;BMP280;64127;51.488;5.462;2022-12-01T05:25:47;102503.06;;;10.29
75431;BMP280;64127;51.488;5.462;2022-12-01T05:28:21;102499.75;;;10.31
75431;BMP280;64127;51.488;5.462;2022-12-01T05:30:54;102498.84;;;10.31
75431;BMP280;64127;51.488;5.462;2022-12-01T05:33:27;102500.34;;;10.27
75431;BMP280;64127;51.488;5.462;2022-12-01T05:35:59;102482.72;;;10.13
75431;BMP280;64127;51.488;5.462;2022-12-01T05:38:31;102507.72;;;10.33
75431;BMP280;64127;51.488;5.462;2022-12-01T05:41:03;102513.09;;;10.34
75431;BMP280;64127;51.488;5.462;2022-12-01T05:43:36;102508.63;;;10.33
75431;BMP280;64127;51.488;5.462;2022-12-01T05:46:10;102504.78;;;10.28
75431;BMP280;64127;51.488;5.462;2022-12-01T05:48:42;102512.06;;;10.32
75431;BMP280;64127;51.488;5.462;2022-12-01T05:51:16;102507.31;;;10.27
75431;BMP280;64127;51.488;5.462;2022-12-01T05:53:48;102514.59;;;10.31
75431;BMP280;64127;51.488;5.462;2022-12-01T05:56:20;102503.06;;;10.29
75431;BMP280;64127;51.488;5.462;2022-12-01T05:58:52;102512.22;;;10.22
75431;BMP280;64127;51.488;5.462;2022-12-01T06:01:24;102512.09;;;10.21
75431;BMP280;64127;51.488;5.462;2022-12-01T06:03:56;102509.16;;;10.16
75431;BMP280;64127;51.488;5.462;2022-12-01T06:06:28;102513.50;;;10.15
75431;BMP280;64127;51.488;5.462;2022-12-01T06:09:00;102515.41;;;10.18
75431;BMP280;64127;51.488;5.462;2022-12-01T06:11:32;102514.63;;;10.19
75431;BMP280;64127;51.488;5.462;2022-12-01T06:14:04;102516.53;;;10.22
75431;BMP280;64127;51.488;5.462;2022-12-01T06:16:36;102502.09;;;10.15
75431;BMP280;64127;51.488;5.462;2022-12-01T06:19:08;102513.22;;;10.24
75431;BMP280;64127;51.488;5.462;2022-12-01T06:21:41;102515.84;;;10.24
75431;BMP280;64127;51.488;5.462;2022-12-01T06:24:13;102520.66;;;10.18
75431;BMP280;64127;51.488;5.462;2022-12-01T06:26:45;102514.41;;;10.16
75431;BMP280;64127;51.488;5.462;2022-12-01T06:29:17;102518.03;;;10.18
75431;BMP280;64127;51.488;5.462;2022-12-01T06:31:49;102514.63;;;10.19
75431;BMP280;64127;51.488;5.462;2022-12-01T06:34:21;102524.31;;;10.20
75431;BMP280;64127;51.488;5.462;2022-12-01T06:36:53;102514.41;;;10.16
75431;BMP280;64127;51.488;5.462;2022-12-01T06:39:25;102509.97;;;10.15
75431;BMP280;64127;51.488;5.462;2022-12-01T06:41:57;102522.28;;;10.16
75431;BMP280;64127;51.488;5.462;2022-12-01T06:44:28;102518.03;;;10.18
75431;BMP280;64127;51.488;5.462;2022-12-01T06:47:00;102526.03;;;10.20
75431;BMP280;64127;51.488;5.462;2022-12-01T06:49:33;102529.63;;;10.22
75431;BMP280;64127;51.488;5.462;2022-12-01T06:52:06;102528.72;;;10.21
75431;BMP280;64127;51.488;5.462;2022-12-01T06:54:38;102533.97;;;10.21
75431;BMP280;64127;51.488;5.462;2022-12-01T06:57:10;102538.28;;;10.21
75431;BMP280;64127;51.488;5.462;2022-12-01T06:59:43;102539.91;;;10.18
75431;BMP280;64127;51.488;5.462;2022-12-01T07:02:15;102550.63;;;10.10
75431;BMP280;64127;51.488;5.462;2022-12-01T07:04:47;102530.63;;;9.99
75431;BMP280;64127;51.488;5.462;2022-12-01T07:07:19;102532.09;;;9.95
75431;BMP280;64127;51.488;5.462;2022-12-01T07:09:51;102552.69;;;10.02
75431;BMP280;64127;51.488;5.462;2022-12-01T07:12:23;102557.03;;;10.02
75431;BMP280;64127;51.488;5.462;2022-12-01T07:14:55;102550.88;;;10.01
75431;BMP280;64127;51.488;5.462;2022-12-01T07:17:28;102557.59;;;9.98
75431;BMP280;64127;51.488;5.462;2022-12-01T07:20:00;102565.66;;;10.01
75431;BMP280;64127;51.488;5.462;2022-12-01T07:22:32;102566.59;;;10.01
75431;BMP280;64127;51.488;5.462;2022-12-01T07:25:05;102563.91;;;10.25
75431;BMP280;64127;51.488;5.462;2022-12-01T07:27:37;102567.94;;;10.08
75431;BMP280;64127;51.488;5.462;2022-12-01T07:30:10;102564.41;;;10.07
75431;BMP280;64127;51.488;5.462;2022-12-01T07:32:42;102572.25;;;10.07
75431;BMP280;64127;51.488;5.462;2022-12-01T07:35:14;102567.84;;;10.06
75431;BMP280;64127;51.488;5.462;2022-12-01T07:37:46;102570.56;;;10.08
75431;BMP280;64127;51.488;5.462;2022-12-01T07:40:18;102570.56;;;10.08
75431;BMP280;64127;51.488;5.462;2022-12-01T07:42:49;102567.72;;;10.05
75431;BMP280;64127;51.488;5.462;2022-12-01T07:45:21;102563.88;;;10.00
75431;BMP280;64127;51.488;5.462;2022-12-01T07:47:53;102568.41;;;10.02
75431;BMP280;64127;51.488;5.462;2022-12-01T07:50:25;102573.16;;;10.08
75431;BMP280;64127;51.488;5.462;2022-12-01T07:52:57;102568.84;;;10.08
75431;BMP280;64127;51.488;5.462;2022-12-01T07:55:29;102571.34;;;10.07
75431;BMP280;64127;51.488;5.462;2022-12-01T07:58:01;102571.13;;;10.04
75431;BMP280;64127;51.488;5.462;2022-12-01T08:00:33;102577.50;;;10.07
75431;BMP280;64127;51.488;5.462;2022-12-01T08:03:05;102573.28;;;10.09
75431;BMP280;64127;51.488;5.462;2022-12-01T08:05:37;102576.69;;;10.08
75431;BMP280;64127;51.488;5.462;2022-12-01T08:08:09;102581.16;;;10.09
75431;BMP280;64127;51.488;5.462;2022-12-01T08:10:41;102587.06;;;10.07
75431;BMP280;64127;51.488;5.462;2022-12-01T08:13:13;102583.22;;;10.02
75431;BMP280;64127;51.488;5.462;2022-12-01T08:15:48;102597.78;;;10.10
75431;BMP280;64127;51.488;5.462;2022-12-01T08:18:20;102581.25;;;10.11
75431;BMP280;64127;51.488;5.462;2022-12-01T08:20:56;102596.63;;;10.18
75431;BMP280;64127;51.488;5.462;2022-12-01T08:23:31;102593.44;;;10.22
75431;BMP280;64127;51.488;5.462;2022-12-01T08:26:07;102597.06;;;10.24
75431;BMP280;64127;51.488;5.462;2022-12-01T08:28:40;102595.16;;;10.22
75431;BMP280;64127;51.488;5.462;2022-12-01T08:31:14;102602.22;;;10.23
75431;BMP280;64127;51.488;5.462;2022-12-01T08:33:48;102596.06;;;10.22
75431;BMP280;64127;51.488;5.462;2022-12-01T08:36:21;102594.56;;;10.26
75431;BMP280;64127;51.488;5.462;2022-12-01T08:38:54;102593.66;;;10.25
75431;BMP280;64127;51.488;5.462;2022-12-01T08:41:27;102600.94;;;10.29
75431;BMP280;64127;51.488;5.462;2022-12-01T08:43:59;102606.19;;;10.29
75431;BMP280;64127;51.488;5.462;2022-12-01T08:46:34;102604.94;;;10.24
75431;BMP280;64127;51.488;5.462;2022-12-01T08:49:06;102596.28;;;10.13
75431;BMP280;64127;51.488;5.462;2022-12-01T08:51:38;102607.34;;;10.21
75431;BMP280;64127;51.488;5.462;2022-12-01T08:54:11;102594.59;;;10.14
75431;BMP280;64127;51.488;5.462;2022-12-01T08:56:44;102579.59;;;10.00
75431;BMP280;64127;51.488;5.462;2022-12-01T08:59:16;102601.44;;;10.24
75431;BMP280;64127;51.488;5.462;2022-12-01T09:01:48;102603.22;;;10.25
75431;BMP280;64127;51.488;5.462;2022-12-01T09:04:25;102604.13;;;10.25
75431;BMP280;64127;51.488;5.462;2022-12-01T09:06:57;102607.34;;;10.21
75431;BMP280;64127;51.488;5.462;2022-12-01T09:09:29;102600.28;;;10.20
75431;BMP280;64127;51.488;5.462;2022-12-01T09:12:01;102605.97;;;10.26
75431;BMP280;64127;51.488;5.462;2022-12-01T09:14:42;102609.81;;;10.31
75431;BMP280;64127;51.488;5.462;2022-12-01T09:17:18;102577.28;;;10.16
75431;BMP280;64127;51.488;5.462;2022-12-01T09:19:50;102607.53;;;10.36
75431;BMP280;64127;51.488;5.462;2022-12-01T09:22:23;102608.44;;;10.36
75431;BMP280;64127;51.488;5.462;2022-12-01T09:24:54;102611.16;;;10.38
75431;BMP280;64127;51.488;5.462;2022-12-01T09:27:26;102602.41;;;10.37
75431;BMP280;64127;51.488;5.462;2022-12-01T09:29:58;102601.16;;;10.32
75431;BMP280;64127;51.488;5.462;2022-12-01T09:32:30;102606.03;;;10.39
75431;BMP280;64127;51.488;5.462;2022-12-01T09:35:02;102604.66;;;10.44
75431;BMP280;64127;51.488;5.462;2022-12-01T09:37:34;102579.97;;;10.29
75431;BMP280;64127;51.488;5.462;2022-12-01T09:40:13;102613.41;;;10.45
75431;BMP280;64127;51.488;5.462;2022-12-01T09:42:47;102614.31;;;10.45
75431;BMP280;64127;51.488;5.462;2022-12-01T09:45:28;102618.66;;;10.45
75431;BMP280;64127;51.488;5.462;2022-12-01T09:48:03;102615.25;;;10.46
75431;BMP280;64127;51.488;5.462;2022-12-01T09:50:37;102598.16;;;10.39
75431;BMP280;64127;51.488;5.462;2022-12-01T09:53:18;102618.19;;;10.50
75431;BMP280;64127;51.488;5.462;2022-12-01T09:55:52;102616.13;;;10.58
75431;BMP280;64127;51.488;5.462;2022-12-01T09:58:27;102608.13;;;10.56
75431;BMP280;64127;51.488;5.462;2022-12-01T10:01:01;102611.75;;;10.58
75431;BMP280;64127;51.488;5.462;2022-12-01T10:03:42;102609.97;;;10.57
75431;BMP280;64127;51.488;5.462;2022-12-01T10:06:28;102609.97;;;10.57
75431;BMP280;64127;51.488;5.462;2022-12-01T10:10:01;102608.50;;;10.49
75431;BMP280;64127;51.488;5.462;2022-12-01T10:12:35;102601.88;;;10.54
75431;BMP280;64127;51.488;5.462;2022-12-01T10:15:50;102606.78;;;10.50
75431;BMP280;64127;51.488;5.462;2022-12-01T10:18:57;102606.31;;;10.55
75431;BMP280;64127;51.488;5.462;2022-12-01T10:24:54;102604.72;;;10.57
75431;BMP280;64127;51.488;5.462;2022-12-01T10:30:22;102599.88;;;10.63
75431;BMP280;64127;51.488;5.462;2022-12-01T10:33:23;102577.47;;;10.55
75431;BMP280;64127;51.488;5.462;2022-12-01T10:35:56;102584.94;;;10.62
75431;BMP280;64127;51.488;5.462;2022-12-01T10:38:33;102587.00;;;10.66
75431;BMP280;64127;51.488;5.462;2022-12-01T10:41:13;102586.41;;;10.71
75431;BMP280;64127;51.488;5.462;2022-12-01T10:43:50;102576.91;;;10.73
75431;BMP280;64127;51.488;5.462;2022-12-01T10:46:31;102575.53;;;10.78
75431;BMP280;64127;51.488;5.462;2022-12-01T10:49:14;102571.09;;;10.77
75431;BMP280;64127;51.488;5.462;2022-12-01T10:51:57;102578.38;;;10.81
75431;BMP280;64127;51.488;5.462;2022-12-01T10:54:38;102572.31;;;10.82
75431;BMP280;64127;51.488;5.462;2022-12-01T10:57:14;102568.06;;;10.84
75431;BMP280;64127;51.488;5.462;2022-12-01T11:00:04;102558.09;;;10.78
75431;BMP280;64127;51.488;5.462;2022-12-01T11:02:37;102564.88;;;10.88
75431;BMP280;64127;51.488;5.462;2022-12-01T11:05:33;102565.66;;;10.87
75431;BMP280;64127;51.488;5.462;2022-12-01T11:08:20;102558.81;;;10.89
75431;BMP280;64127;51.488;5.462;2022-12-01T11:10:52;102554.78;;;10.94
75431;BMP280;64127;51.488;5.462;2022-12-01T11:13:33;102560.94;;;10.94
75431;BMP280;64127;51.488;5.462;2022-12-01T11:16:33;102570.31;;;10.91
75431;BMP280;64127;51.488;5.462;2022-12-01T11:19:33;102540.03;;;10.83
75431;BMP280;64127;51.488;5.462;2022-12-01T11:22:28;102562.66;;;10.94
75431;BMP280;64127;51.488;5.462;2022-12-01T11:25:18;102550.44;;;10.94
75431;BMP280;64127;51.488;5.462;2022-12-01T11:27:52;102559.63;;;11.01
75431;BMP280;64127;51.488;5.462;2022-12-01T11:30:30;102555.09;;;10.98
75431;BMP280;64127;51.488;5.462;2022-12-01T11:33:03;102541.97;;;10.98
75431;BMP280;64127;51.488;5.462;2022-12-01T11:35:37;102552.69;;;11.01
75431;BMP280;64127;51.488;5.462;2022-12-01T11:38:21;102541.28;;;11.01
75431;BMP280;64127;51.488;5.462;2022-12-01T11:41:01;102534.19;;;11.00
75431;BMP280;64127;51.488;5.462;2022-12-01T11:43:36;102524.34;;;10.96
75431;BMP280;64127;51.488;5.462;2022-12-01T11:46:13;102542.38;;;11.04
75431;BMP280;64127;51.488;5.462;2022-12-01T11:48:57;102529.38;;;11.06
75431;BMP280;64127;51.488;5.462;2022-12-01T11:51:34;102527.56;;;11.05
75431;BMP280;64127;51.488;5.462;2022-12-01T11:54:24;102535.03;;;11.12
75431;BMP280;64127;51.488;5.462;2022-12-01T11:56:56;102535.25;;;11.15
75431;BMP280;64127;51.488;5.462;2022-12-01T11:59:48;102544.09;;;11.17
75431;BMP280;64127;51.488;5.462;2022-12-01T12:03:06;102526.34;;;11.13
75431;BMP280;64127;51.488;5.462;2022-12-01T12:17:31;102519.09;;;11.09
75431;BMP280;64127;51.488;5.462;2022-12-01T12:20:44;102519.88;;;11.08
75431;BMP280;64127;51.488;5.462;2022-12-01T12:24:01;102520.69;;;11.07
75431;BMP280;64127;51.488;5.462;2022-12-01T12:27:13;102521.09;;;11.13
75431;BMP280;64127;51.488;5.462;2022-12-01T12:42:43;102507.28;;;11.02
75431;BMP280;64127;51.488;5.462;2022-12-01T12:51:00;102501.72;;;11.11
75431;BMP280;64127;51.488;5.462;2022-12-01T12:53:47;102502.13;;;11.17
75431;BMP280;64127;51.488;5.462;2022-12-01T12:56:25;102459.13;;;11.15
75431;BMP280;64127;51.488;5.462;2022-12-01T13:02:02;102488.97;;;11.56
75431;BMP280;64127;51.488;5.462;2022-12-01T13:04:55;102490.47;;;11.66
75431;BMP280;64127;51.488;5.462;2022-12-01T13:14:06;102483.19;;;11.62
75431;BMP280;64127;51.488;5.462;2022-12-01T13:16:51;102472.59;;;11.60
75431;BMP280;64127;51.488;5.462;2022-12-01T13:19:32;102484.22;;;11.64
75431;BMP280;64127;51.488;5.462;2022-12-01T13:22:08;102482.19;;;11.60
75431;BMP280;64127;51.488;5.462;2022-12-01T13:24:42;102480.97;;;11.55
75431;BMP280;64127;51.488;5.462;2022-12-01T13:27:22;102479.47;;;11.45
75431;BMP280;64127;51.488;5.462;2022-12-01T13:29:56;102473.03;;;11.40
75431;BMP280;64127;51.488;5.462;2022-12-01T13:32:35;102468.78;;;11.42
75431;BMP280;64127;51.488;5.462;2022-12-01T13:35:37;102467.16;;;11.44
75431;BMP280;64127;51.488;5.462;2022-12-01T13:41:12;102450.31;;;11.82
75431;BMP280;64127;51.488;5.462;2022-12-01T13:47:02;102454.88;;;11.84
75431;BMP280;64127;51.488;5.462;2022-12-01T13:49:45;102451.97;;;11.80
75431;BMP280;64127;51.488;5.462;2022-12-01T14:08:30;102446.84;;;11.55
75431;BMP280;64127;51.488;5.462;2022-12-01T14:11:17;102445.66;;;11.50
75431;BMP280;64127;51.488;5.462;2022-12-01T14:14:00;102453.41;;;11.48
75431;BMP280;64127;51.488;5.462;2022-12-01T14:16:55;102450.81;;;11.35
75431;BMP280;64127;51.488;5.462;2022-12-01T14:19:47;102461.53;;;11.25
75431;BMP280;64127;51.488;5.462;2022-12-01T14:22:43;102465.81;;;11.23
75431;BMP280;64127;51.488;5.462;2022-12-01T14:28:01;102465.28;;;11.15
75431;BMP280;64127;51.488;5.462;2022-12-01T14:39:03;102473.06;;;11.01
75431;BMP280;64127;51.488;5.462;2022-12-01T14:41:46;102468.53;;;10.98
75431;BMP280;64127;51.488;5.462;2022-12-01T14:44:54;102475.09;;;10.92
75431;BMP280;64127;51.488;5.462;2022-12-01T14:47:46;102467.22;;;10.92
75431;BMP280;64127;51.488;5.462;2022-12-01T14:53:35;102458.63;;;10.81
75431;BMP280;64127;51.488;5.462;2022-12-01T14:56:13;102468.59;;;10.87
75431;BMP280;64127;51.488;5.462;2022-12-01T14:59:00;102461.06;;;10.78
75431;BMP280;64127;51.488;5.462;2022-12-01T15:01:36;102467.69;;;10.86
75431;BMP280;64127;51.488;5.462;2022-12-01T15:04:08;102455.81;;;10.91
75431;BMP280;64127;51.488;5.462;2022-12-01T15:06:40;102458.13;;;10.87
75431;BMP280;64127;51.488;5.462;2022-12-01T15:09:19;102456.28;;;10.86
75431;BMP280;64127;51.488;5.462;2022-12-01T15:12:25;102450.84;;;10.83
75431;BMP280;64127;51.488;5.462;2022-12-01T15:14:57;102465.78;;;10.84
75431;BMP280;64127;51.488;5.462;2022-12-01T15:17:34;102464.59;;;10.79
75431;BMP280;64127;51.488;5.462;2022-12-01T15:20:34;102461.44;;;10.71
75431;BMP280;64127;51.488;5.462;2022-12-01T15:23:13;102464.16;;;10.73
75431;BMP280;64127;51.488;5.462;2022-12-01T15:25:46;102474.03;;;10.77
75431;BMP280;64127;51.488;5.462;2022-12-01T15:28:27;102479.50;;;10.80
75431;BMP280;64127;51.488;5.462;2022-12-01T15:31:11;102476.88;;;10.80
75431;BMP280;64127;51.488;5.462;2022-12-01T15:33:49;102486.44;;;10.79
75431;BMP280;64127;51.488;5.462;2022-12-01T15:36:22;102480.13;;;11.15
75431;BMP280;64127;51.488;5.462;2022-12-01T15:38:55;102480.91;;;11.14
75431;BMP280;64127;51.488;5.462;2022-12-01T15:41:39;102476.59;;;10.88
75431;BMP280;64127;51.488;5.462;2022-12-01T15:45:17;102489.31;;;10.95
75431;BMP280;64127;51.488;5.462;2022-12-01T15:47:52;102491.81;;;10.81
75431;BMP280;64127;51.488;5.462;2022-12-01T15:50:59;102489.56;;;10.74
75431;BMP280;64127;51.488;5.462;2022-12-01T15:53:37;102451.72;;;10.57
75431;BMP280;64127;51.488;5.462;2022-12-01T15:56:11;102484.13;;;10.71
75431;BMP280;64127;51.488;5.462;2022-12-01T15:58:45;102482.63;;;10.74
75431;BMP280;64127;51.488;5.462;2022-12-01T16:01:19;102479.81;;;10.71
75431;BMP280;64127;51.488;5.462;2022-12-01T16:04:02;102478.09;;;10.72
75431;BMP280;64127;51.488;5.462;2022-12-01T16:06:37;102481.72;;;10.74
75431;BMP280;64127;51.488;5.462;2022-12-01T16:09:33;102485.13;;;10.73
75431;BMP280;64127;51.488;5.462;2022-12-01T16:12:21;102481.09;;;10.64
75431;BMP280;64127;51.488;5.462;2022-12-01T16:17:28;102447.41;;;10.57
75431;BMP280;64127;51.488;5.462;2022-12-01T16:20:33;102485.03;;;10.71
75431;BMP280;64127;51.488;5.462;2022-12-01T16:23:17;102485.72;;;10.68
75431;BMP280;64127;51.488;5.462;2022-12-01T16:25:51;102494.63;;;10.71
75431;BMP280;64127;51.488;5.462;2022-12-01T16:28:33;102484.91;;;10.69
75431;BMP280;64127;51.488;5.462;2022-12-01T16:31:17;102488.34;;;10.68
75431;BMP280;64127;51.488;5.462;2022-12-01T16:34:00;102478.56;;;10.66
75431;BMP280;64127;51.488;5.462;2022-12-01T16:36:53;102490.16;;;10.69
75431;BMP280;64127;51.488;5.462;2022-12-01T16:39:24;102496.44;;;10.72
75431;BMP280;64127;51.488;5.462;2022-12-01T16:41:58;102495.63;;;10.73
75431;BMP280;64127;51.488;5.462;2022-12-01T16:44:31;102496.53;;;10.73